Time;durP1;ratioP1;P1;durP2;ratioP2;P2;SDS_P1;SDS_P2;PMS_P1;PMS_P2;Temp;Humidity;BMP_temperature;BMP_pressure;BME280_temperature;BME280_humidity;BME280_pressure;Samples;Min_cycle;Max_cycle;Signal;HPM_P1;HPM_P2
2022/06/20 00:00:13;;;;;;;38.83;16.03;;;24.90;21.40;;;;;;4988400;28;20997;-66
2022/06/20 00:02:45;;;;;;;36.13;14.50;;;24.90;21.10;;;;;;4989166;28;20798;-66
2022/06/20 00:05:15;;;;;;;37.37;15.20;;;24.90;20.60;;;;;;4989652;28;20452;-66
2022/06/20 00:07:42;;;;;;;34.83;15.33;;;24.80;20.50;;;;;;4989240;28;20485;-66
2022/06/20 00:10:11;;;;;;;40.20;14.87;;;24.80;20.30;;;;;;4987157;28;20495;-66
2022/06/20 00:12:40;;;;;;;36.23;14.53;;;24.80;20.40;;;;;;4988586;28;20464;-66
2022/06/20 00:15:08;;;;;;;37.80;14.63;;;24.80;20.20;;;;;;4988906;28;20461;-66
2022/06/20 00:17:35;;;;;;;36.63;14.63;;;24.80;20.30;;;;;;4988726;28;20507;-66
2022/06/20 00:20:01;;;;;;;39.97;15.60;;;24.80;20.40;;;;;;4987908;28;20480;-66
2022/06/20 00:22:29;;;;;;;44.20;15.53;;;24.80;20.20;;;;;;4988140;28;20475;-66
2022/06/20 00:24:56;;;;;;;44.37;15.30;;;24.80;20.00;;;;;;4989571;28;20461;-66
2022/06/20 00:27:22;;;;;;;45.60;15.20;;;24.80;19.80;;;;;;4989110;28;20500;-66
2022/06/20 00:29:51;;;;;;;44.77;14.70;;;24.80;19.70;;;;;;4989089;28;20485;-67
2022/06/20 00:32:17;;;;;;;39.80;15.13;;;24.70;19.90;;;;;;4981577;28;20476;-66
2022/06/20 00:34:44;;;;;;;38.77;14.20;;;24.70;19.70;;;;;;4987263;28;20488;-66
2022/06/20 00:37:18;;;;;;;38.63;13.53;;;24.70;19.30;;;;;;4989176;28;20482;-66
2022/06/20 00:39:45;;;;;;;40.13;12.83;;;24.70;18.90;;;;;;4988628;28;20490;-66
2022/06/20 00:42:12;;;;;;;37.57;15.20;;;24.70;18.50;;;;;;4988050;28;20465;-66
2022/06/20 00:44:44;;;;;;;36.37;13.87;;;24.70;18.40;;;;;;4988886;28;20467;-66
2022/06/20 00:47:16;;;;;;;36.37;15.10;;;24.70;18.90;;;;;;4987032;28;20484;-66
2022/06/20 00:49:50;;;;;;;36.47;14.10;;;24.70;19.70;;;;;;4990751;28;20485;-66
2022/06/20 00:52:22;;;;;;;40.20;14.90;;;24.60;20.00;;;;;;4991553;28;20464;-66
2022/06/20 00:54:53;;;;;;;39.77;15.07;;;24.70;20.00;;;;;;4992713;28;21150;-66
2022/06/20 00:57:25;;;;;;;38.13;16.23;;;24.70;20.90;;;;;;4992719;28;20441;-66
2022/06/20 00:59:58;;;;;;;36.83;13.83;;;24.70;21.40;;;;;;4992913;28;20542;-66
2022/06/20 01:02:28;;;;;;;36.90;14.23;;;24.70;20.30;;;;;;4989815;28;20483;-66
2022/06/20 01:05:00;;;;;;;37.83;14.83;;;24.70;20.30;;;;;;4992193;28;20460;-66
2022/06/20 01:07:41;;;;;;;37.40;13.73;;;24.70;19.90;;;;;;4992368;28;20545;-66
2022/06/20 01:10:11;;;;;;;39.37;14.67;;;24.70;19.70;;;;;;4992876;28;20491;-66
2022/06/20 01:12:47;;;;;;;46.20;15.73;;;24.70;19.90;;;;;;4990993;28;20476;-66
2022/06/20 01:15:20;;;;;;;35.47;14.83;;;24.70;19.80;;;;;;4993015;28;20448;-67
2022/06/20 01:17:49;;;;;;;38.40;14.03;;;24.80;20.00;;;;;;4990686;28;20467;-66
2022/06/20 01:20:23;;;;;;;37.13;14.90;;;24.80;19.70;;;;;;4991912;28;20484;-66
2022/06/20 01:23:02;;;;;;;39.63;13.77;;;24.80;19.70;;;;;;4992774;28;20453;-66
2022/06/20 01:25:46;;;;;;;33.83;14.83;;;24.80;19.60;;;;;;4991639;28;20460;-66
2022/06/20 01:28:17;;;;;;;44.40;15.07;;;24.90;20.10;;;;;;4991846;28;20452;-66
2022/06/20 01:30:45;;;;;;;37.83;14.93;;;24.90;20.30;;;;;;4991517;28;20476;-66
2022/06/20 01:33:14;;;;;;;39.27;15.37;;;25.00;20.50;;;;;;4992485;28;20830;-66
2022/06/20 01:38:28;;;;;;;40.20;15.23;;;25.00;20.50;;;;;;4990891;28;20865;-66
2022/06/20 01:43:41;;;;;;;37.93;14.30;;;24.90;20.30;;;;;;4992683;28;20483;-66
2022/06/20 01:46:11;;;;;;;39.70;14.87;;;24.90;19.80;;;;;;4990657;28;20461;-66
2022/06/20 01:48:41;;;;;;;40.30;14.80;;;24.80;19.40;;;;;;4990941;28;20484;-66
2022/06/20 01:51:13;;;;;;;43.80;13.80;;;24.80;19.00;;;;;;4992159;28;20461;-66
2022/06/20 01:53:41;;;;;;;35.23;13.43;;;24.90;18.60;;;;;;4991816;28;20467;-66
2022/06/20 01:56:09;;;;;;;37.10;13.10;;;24.90;18.20;;;;;;4991616;28;20910;-66
2022/06/20 01:58:38;;;;;;;37.60;12.83;;;24.90;17.80;;;;;;4989363;28;20495;-66
2022/06/20 02:01:07;;;;;;;39.97;13.13;;;25.00;17.30;;;;;;4988980;28;20934;-66
2022/06/20 02:03:37;;;;;;;40.80;13.43;;;25.00;17.10;;;;;;4991822;28;20461;-66
2022/06/20 02:06:05;;;;;;;42.43;12.90;;;25.00;17.00;;;;;;4991965;28;20464;-67
2022/06/20 02:08:32;;;;;;;37.67;13.77;;;25.00;17.10;;;;;;4990477;28;20562;-66
2022/06/20 02:11:05;;;;;;;40.37;12.80;;;25.00;17.60;;;;;;4991735;28;20472;-67
2022/06/20 02:13:38;;;;;;;34.40;13.37;;;24.90;17.80;;;;;;4991064;28;21101;-66
2022/06/20 02:16:10;;;;;;;39.37;14.33;;;24.80;18.60;;;;;;4991268;28;20467;-66
2022/06/20 02:18:40;;;;;;;38.40;13.23;;;24.70;19.20;;;;;;4990040;28;20527;-66
2022/06/20 02:21:11;;;;;;;33.40;13.60;;;24.70;19.50;;;;;;4990987;28;20841;-66
2022/06/20 02:23:42;;;;;;;41.07;15.10;;;24.70;19.40;;;;;;4990954;28;20468;-66
2022/06/20 02:26:11;;;;;;;37.60;14.87;;;24.70;19.90;;;;;;4991224;28;20460;-66
2022/06/20 02:28:48;;;;;;;34.77;14.90;;;24.60;20.20;;;;;;4990013;28;20477;-66
2022/06/20 02:31:16;;;;;;;34.73;14.27;;;24.50;20.80;;;;;;4969739;28;21169;-66
2022/06/20 02:33:43;;;;;;;39.27;14.60;;;24.40;20.80;;;;;;4986182;28;20456;-66
2022/06/20 02:36:10;;;;;;;38.27;14.33;;;24.30;20.90;;;;;;4991135;28;20463;-66
2022/06/20 02:38:37;;;;;;;37.93;13.70;;;24.20;20.90;;;;;;4990862;28;20480;-66
2022/06/20 02:41:05;;;;;;;37.10;15.53;;;24.20;20.70;;;;;;4987960;28;20467;-66
2022/06/20 02:43:38;;;;;;;39.13;15.87;;;24.10;21.40;;;;;;4989478;28;20562;-66
2022/06/20 02:46:10;;;;;;;37.57;14.57;;;24.00;21.70;;;;;;4986010;28;20977;-66
2022/06/20 02:48:41;;;;;;;37.23;14.50;;;23.90;22.00;;;;;;4990662;28;20918;-66
2022/06/20 02:51:12;;;;;;;38.10;14.67;;;23.90;22.10;;;;;;4989745;28;20553;-66
2022/06/20 02:53:42;;;;;;;40.17;13.83;;;23.80;22.30;;;;;;4989347;28;20472;-66
2022/06/20 02:56:13;;;;;;;46.73;15.50;;;23.70;22.20;;;;;;4990371;28;20449;-66
2022/06/20 02:58:45;;;;;;;36.30;14.40;;;23.70;22.10;;;;;;4990470;28;20481;-66
2022/06/20 03:01:16;;;;;;;35.90;14.67;;;23.60;22.10;;;;;;4989865;28;20484;-66
2022/06/20 03:03:47;;;;;;;36.13;13.17;;;23.60;21.90;;;;;;4989068;28;20957;-66
2022/06/20 03:06:20;;;;;;;40.47;15.60;;;23.60;22.10;;;;;;4990113;28;20445;-66
2022/06/20 03:08:47;;;;;;;37.97;13.73;;;23.60;22.20;;;;;;4990387;28;20472;-66
2022/06/20 03:11:14;;;;;;;33.57;14.47;;;23.50;21.90;;;;;;4990217;28;20492;-67
2022/06/20 03:13:42;;;;;;;37.93;14.03;;;23.60;22.00;;;;;;4988362;28;20461;-67
2022/06/20 03:16:10;;;;;;;37.00;13.40;;;23.50;21.50;;;;;;4988305;28;20534;-67
2022/06/20 03:18:41;;;;;;;40.30;14.13;;;23.50;20.90;;;;;;4990240;28;20543;-67
2022/06/20 03:21:09;;;;;;;37.07;13.53;;;23.50;20.60;;;;;;4972455;28;20457;-67
2022/06/20 03:23:37;;;;;;;38.93;13.00;;;23.50;20.30;;;;;;4976144;28;20464;-67
2022/06/20 03:26:06;;;;;;;38.23;13.13;;;23.40;20.30;;;;;;4990301;28;20471;-67
2022/06/20 03:28:34;;;;;;;37.37;12.23;;;23.50;20.10;;;;;;4990377;28;20488;-67
2022/06/20 03:31:02;;;;;;;35.57;12.57;;;23.50;19.90;;;;;;4988997;28;20477;-66
2022/06/20 03:33:29;;;;;;;46.47;14.63;;;23.50;19.80;;;;;;4988295;28;20522;-66
2022/06/20 03:36:01;;;;;;;39.53;13.93;;;23.50;19.70;;;;;;4988659;28;20467;-66
2022/06/20 03:38:30;;;;;;;39.43;13.63;;;23.60;19.80;;;;;;4990766;28;20480;-67
2022/06/20 03:40:56;;;;;;;40.00;13.47;;;23.50;19.70;;;;;;4989678;28;20456;-67
2022/06/20 03:43:25;;;;;;;38.03;12.53;;;23.60;19.50;;;;;;4990296;28;20463;-67
2022/06/20 03:45:56;;;;;;;36.60;13.03;;;23.60;19.30;;;;;;4987163;28;20465;-67
2022/06/20 03:48:29;;;;;;;37.27;12.77;;;23.70;19.20;;;;;;4989605;28;20527;-67
2022/06/20 03:50:59;;;;;;;41.13;14.90;;;23.70;19.10;;;;;;4989475;28;20445;-66
2022/06/20 03:53:34;;;;;;;40.30;12.13;;;23.80;19.10;;;;;;4982264;28;20488;-66
2022/06/20 03:56:10;;;;;;;36.77;13.33;;;23.80;19.10;;;;;;4986030;28;20488;-66
2022/06/20 03:58:42;;;;;;;39.53;13.93;;;23.90;19.30;;;;;;4983578;28;20480;-63
2022/06/20 04:01:12;;;;;;;43.60;15.80;;;23.90;19.50;;;;;;4968382;28;20469;-61
2022/06/20 04:03:44;;;;;;;39.60;15.13;;;24.00;19.70;;;;;;4967831;28;20986;-61
2022/06/20 04:06:18;;;;;;;38.47;14.57;;;24.00;19.80;;;;;;4982619;28;20460;-61
2022/06/20 04:11:42;;;;;;;38.00;13.93;;;24.00;20.10;;;;;;4987951;28;20445;-61
2022/06/20 04:14:14;;;;;;;41.37;15.27;;;24.10;20.30;;;;;;5004376;28;20820;-62
2022/06/20 04:16:44;;;;;;;41.30;14.33;;;24.10;20.40;;;;;;4989360;28;20480;-61
2022/06/20 04:19:19;;;;;;;41.80;16.23;;;24.10;20.20;;;;;;4988758;28;20823;-61
2022/06/20 04:21:51;;;;;;;37.10;13.57;;;24.10;20.30;;;;;;4987939;28;20975;-62
2022/06/20 04:24:25;;;;;;;38.00;14.03;;;24.10;20.20;;;;;;4975295;28;20476;-61
2022/06/20 04:26:56;;;;;;;36.07;14.07;;;24.20;20.00;;;;;;4981250;28;21014;-61
2022/06/20 04:29:28;;;;;;;40.03;14.00;;;24.20;19.80;;;;;;4978356;28;20500;-61
2022/06/20 04:32:01;;;;;;;37.33;14.13;;;24.30;19.60;;;;;;4979053;28;20481;-61
2022/06/20 04:34:34;;;;;;;37.50;14.77;;;24.40;19.60;;;;;;4983729;28;20464;-61
2022/06/20 04:37:08;;;;;;;40.30;13.93;;;24.40;19.30;;;;;;4983849;28;20468;-61
2022/06/20 04:39:44;;;;;;;38.00;13.70;;;24.50;19.10;;;;;;4987250;28;20485;-61
2022/06/20 04:42:18;;;;;;;46.30;14.40;;;24.70;18.90;;;;;;4988133;28;20445;-61
2022/06/20 04:44:50;;;;;;;36.77;13.50;;;25.10;18.30;;;;;;4988434;28;20522;-62
2022/06/20 04:47:39;;;;;;;35.67;13.87;;;25.70;17.40;;;;;;4984793;28;20481;-61
2022/06/20 04:50:08;;;;;;;39.97;13.30;;;26.30;16.70;;;;;;4975311;28;21213;-62
2022/06/20 04:52:35;;;;;;;36.73;13.63;;;26.90;15.50;;;;;;4972521;28;20602;-66
2022/06/20 04:55:05;;;;;;;33.50;11.87;;;27.50;14.70;;;;;;4976634;28;20969;-67
2022/06/20 04:57:34;;;;;;;44.67;14.10;;;28.10;13.40;;;;;;4987546;28;20472;-67
2022/06/20 05:00:05;;;;;;;41.43;12.10;;;28.60;12.40;;;;;;4987076;28;20480;-67
2022/06/20 05:02:32;;;;;;;36.73;12.53;;;28.80;11.60;;;;;;4983862;28;20480;-67
2022/06/20 05:05:04;;;;;;;34.53;12.67;;;28.50;11.80;;;;;;4984594;28;20855;-67
2022/06/20 05:07:35;;;;;;;37.10;12.13;;;28.20;12.10;;;;;;4989127;28;20476;-67
2022/06/20 05:10:12;;;;;;;40.27;13.40;;;28.00;12.40;;;;;;4987479;28;20496;-67
2022/06/20 05:12:46;;;;;;;36.03;13.10;;;28.00;12.80;;;;;;4983321;28;20452;-67
2022/06/20 05:15:17;;;;;;;37.30;11.97;;;28.20;12.80;;;;;;4984417;28;20612;-67
2022/06/20 05:17:46;;;;;;;34.80;11.20;;;28.80;11.60;;;;;;4987902;28;20581;-67
2022/06/20 05:20:21;;;;;;;34.60;11.30;;;29.00;11.20;;;;;;4987561;28;20480;-67
2022/06/20 05:22:54;;;;;;;48.10;12.70;;;29.10;11.10;;;;;;4986343;28;20441;-67
2022/06/20 05:25:25;;;;;;;37.07;11.77;;;29.30;10.80;;;;;;4986145;28;20456;-67
2022/06/20 05:27:56;;;;;;;37.37;11.70;;;29.20;10.80;;;;;;4987535;28;20468;-67
2022/06/20 05:30:27;;;;;;;38.20;10.90;;;29.20;10.80;;;;;;4986845;28;20496;-67
2022/06/20 05:33:01;;;;;;;35.57;9.87;;;29.80;10.80;;;;;;4987469;28;20460;-67
2022/06/20 05:35:33;;;;;;;35.50;10.37;;;31.30;8.90;;;;;;4986742;28;20467;-67
2022/06/20 05:38:05;;;;;;;33.53;10.07;;;32.60;6.60;;;;;;4989998;28;20453;-68
2022/06/20 05:40:40;;;;;;;38.97;10.47;;;32.60;5.10;;;;;;4991738;28;20870;-68
2022/06/20 05:43:16;;;;;;;36.57;9.07;;;32.20;5.10;;;;;;4991119;28;20460;-68
2022/06/20 05:45:43;;;;;;;36.87;9.30;;;31.90;5.00;;;;;;4984685;28;20518;-67
2022/06/20 05:48:13;;;;;;;34.20;9.50;;;31.60;4.80;;;;;;4981742;28;20481;-68
2022/06/20 05:50:47;;;;;;;33.27;8.97;;;32.10;4.50;;;;;;4984393;28;20468;-68
2022/06/20 05:53:23;;;;;;;33.13;8.57;;;32.70;3.40;;;;;;4978177;28;20909;-68
2022/06/20 05:55:54;;;;;;;32.90;7.90;;;33.90;2.60;;;;;;4986477;28;21228;-69
2022/06/20 05:58:24;;;;;;;33.27;7.90;;;35.20;1.30;;;;;;4983497;28;20504;-68
2022/06/20 06:00:54;;;;;;;37.13;8.07;;;36.30;1.00;;;;;;4975749;28;20465;-68
2022/06/20 06:03:25;;;;;;;34.43;7.67;;;37.10;1.00;;;;;;4991613;28;20519;-68
2022/06/20 06:05:56;;;;;;;34.00;8.40;;;37.90;1.00;;;;;;4984504;28;20469;-68
2022/06/20 06:08:27;;;;;;;32.73;7.23;;;38.70;1.00;;;;;;4988840;28;20476;-68
2022/06/20 06:11:01;;;;;;;31.60;8.00;;;39.60;1.00;;;;;;4977666;28;20561;-68
2022/06/20 06:13:36;;;;;;;32.33;7.33;;;40.40;1.00;;;;;;4987588;28;20513;-68
2022/06/20 06:18:58;;;;;;;32.67;7.03;;;41.50;1.00;;;;;;4990882;28;20473;-68
2022/06/20 06:21:27;;;;;;;30.40;6.90;;;41.00;1.00;;;;;;4990350;28;20456;-68
2022/06/20 06:23:54;;;;;;;32.77;6.40;;;40.90;1.00;;;;;;4990040;28;20453;-68
2022/06/20 06:26:22;;;;;;;31.10;6.03;;;41.70;1.00;;;;;;4990202;28;20457;-68
2022/06/20 06:28:50;;;;;;;28.17;5.33;;;41.30;1.00;;;;;;4987988;28;20485;-68
2022/06/20 06:31:22;;;;;;;29.80;5.67;;;41.30;1.00;;;;;;4989356;28;20484;-68
2022/06/20 06:33:52;;;;;;;30.03;5.40;;;41.50;1.00;;;;;;4990460;28;20731;-68
2022/06/20 06:36:25;;;;;;;28.70;5.80;;;41.50;1.00;;;;;;4990543;28;20449;-68
2022/06/20 06:38:56;;;;;;;29.63;5.57;;;40.50;1.00;;;;;;4989223;28;20576;-68
2022/06/20 06:41:28;;;;;;;32.73;5.80;;;39.30;1.00;;;;;;4989538;28;20448;-68
2022/06/20 06:43:57;;;;;;;29.97;5.70;;;38.10;1.00;;;;;;4990565;28;20461;-68
2022/06/20 06:46:29;;;;;;;27.93;5.00;;;37.00;1.00;;;;;;4989696;28;20882;-68
2022/06/20 06:49:19;;;;;;;29.13;5.80;;;36.10;1.00;;;;;;4987631;28;20512;-68
2022/06/20 06:51:55;;;;;;;29.43;6.30;;;35.80;1.00;;;;;;4989512;28;20460;-68
2022/06/20 06:54:29;;;;;;;28.47;5.80;;;35.40;1.00;;;;;;4989820;28;20483;-70
2022/06/20 06:57:02;;;;;;;29.40;6.30;;;35.50;1.00;;;;;;4988759;28;20471;-68
2022/06/20 06:59:34;;;;;;;33.00;6.17;;;36.00;1.00;;;;;;4988004;28;20876;-68
2022/06/20 07:02:03;;;;;;;30.83;6.60;;;36.50;1.00;;;;;;4988205;28;20483;-68
2022/06/20 07:04:36;;;;;;;34.13;6.53;;;36.10;1.00;;;;;;4989258;28;20461;-68
2022/06/20 07:07:11;;;;;;;34.47;6.60;;;36.20;1.00;;;;;;4989367;28;20449;-68
2022/06/20 07:09:44;;;;;;;31.70;6.87;;;36.80;1.00;;;;;;4988884;28;21048;-68
2022/06/20 07:12:20;;;;;;;28.23;5.70;;;37.50;1.00;;;;;;4990876;28;20460;-68
2022/06/20 07:14:58;;;;;;;32.60;6.17;;;39.70;1.00;;;;;;4990705;28;20441;-67
2022/06/20 07:17:29;;;;;;;30.50;6.10;;;40.20;1.00;;;;;;4990569;28;20507;-68
2022/06/20 07:19:58;;;;;;;27.67;5.90;;;40.80;1.00;;;;;;4988530;28;20770;-68
2022/06/20 07:22:25;;;;;;;27.70;5.37;;;42.50;1.00;;;;;;4987549;28;20468;-68
2022/06/20 07:24:53;;;;;;;26.83;4.77;;;43.90;1.00;;;;;;4990218;28;20461;-68
2022/06/20 07:27:29;;;;;;;30.00;5.33;;;45.00;1.00;;;;;;4990628;28;20468;-69
2022/06/20 07:30:02;;;;;;;28.73;4.93;;;45.70;1.00;;;;;;4989573;28;20495;-68
2022/06/20 07:32:36;;;;;;;34.83;5.37;;;45.80;1.00;;;;;;4986201;28;20706;-68
2022/06/20 07:35:08;;;;;;;28.13;4.40;;;45.80;1.00;;;;;;4990132;28;20469;-68
2022/06/20 07:37:39;;;;;;;30.17;5.03;;;44.50;1.00;;;;;;4988063;28;20472;-68
2022/06/20 07:40:12;;;;;;;28.30;5.07;;;42.70;1.00;;;;;;4989308;28;20511;-68
2022/06/20 07:42:46;;;;;;;28.10;5.20;;;41.00;1.00;;;;;;4988225;28;20465;-68
2022/06/20 07:45:18;;;;;;;27.90;5.50;;;39.50;1.00;;;;;;4970237;28;20913;-68
2022/06/20 07:47:52;;;;;;;28.70;5.50;;;38.40;1.00;;;;;;4970316;28;20452;-68
2022/06/20 07:50:23;;;;;;;35.00;5.63;;;37.60;1.00;;;;;;4969526;28;20473;-69
2022/06/20 07:52:55;;;;;;;32.93;5.80;;;37.20;1.00;;;;;;4967960;28;20862;-67
2022/06/20 07:55:27;;;;;;;33.50;5.70;;;36.50;1.00;;;;;;4987607;28;20539;-67
2022/06/20 07:57:59;;;;;;;29.93;6.53;;;35.60;1.00;;;;;;4989688;28;20437;-67
2022/06/20 08:00:33;;;;;;;30.30;6.10;;;34.60;1.00;;;;;;4987239;28;20457;-67
2022/06/20 08:03:07;;;;;;;31.43;5.70;;;33.70;1.00;;;;;;4989008;28;20453;-67
2022/06/20 08:05:38;;;;;;;29.83;5.77;;;32.90;1.40;;;;;;4987681;28;20456;-67
2022/06/20 08:08:11;;;;;;;28.63;6.53;;;32.20;3.00;;;;;;4988883;28;20962;-67
2022/06/20 08:10:42;;;;;;;27.70;5.70;;;31.50;4.50;;;;;;4988168;28;20581;-67
2022/06/20 08:13:17;;;;;;;33.20;7.20;;;30.90;5.50;;;;;;4988546;28;20937;-65
2022/06/20 08:15:50;;;;;;;31.17;7.33;;;30.30;6.40;;;;;;4986872;28;20460;-65
2022/06/20 08:18:17;;;;;;;29.10;6.90;;;29.90;7.20;;;;;;4988105;28;20961;-64
2022/06/20 08:20:48;;;;;;;33.27;6.70;;;29.60;8.20;;;;;;4988344;28;20472;-65
2022/06/20 08:23:20;;;;;;;30.67;6.67;;;29.70;9.30;;;;;;4988433;28;20467;-65
2022/06/20 08:25:53;;;;;;;29.50;6.30;;;31.50;8.30;;;;;;4987442;28;20463;-65
2022/06/20 08:28:23;;;;;;;28.83;6.80;;;32.60;6.70;;;;;;4988042;28;20461;-65
2022/06/20 08:30:53;;;;;;;29.87;6.27;;;34.60;4.70;;;;;;4987848;28;21104;-65
2022/06/20 08:33:25;;;;;;;28.13;6.10;;;37.20;1.00;;;;;;4987181;28;20834;-65
2022/06/20 08:35:55;;;;;;;29.00;5.27;;;39.60;1.00;;;;;;4987250;28;20479;-66
2022/06/20 08:38:28;;;;;;;27.50;5.40;;;42.50;1.00;;;;;;4988419;28;20990;-66
2022/06/20 08:41:24;;;;;;;29.23;5.17;;;44.60;1.00;;;;;;4988272;28;20444;-65
2022/06/20 08:44:18;;;;;;;26.20;4.60;;;45.00;1.00;;;;;;4988218;28;20791;-65
2022/06/20 08:47:20;;;;;;;30.60;5.47;;;44.90;1.00;;;;;;4984966;28;20467;-66
2022/06/20 08:50:28;;;;;;;26.67;4.70;;;44.80;1.00;;;;;;4987949;28;20494;-66
2022/06/20 08:53:27;;;;;;;27.43;5.13;;;42.70;1.00;;;;;;4934380;28;20968;-66
2022/06/20 08:56:15;;;;;;;27.00;4.90;;;41.00;1.00;;;;;;4987825;28;20827;-65
2022/06/20 08:58:56;;;;;;;25.80;4.80;;;40.10;1.00;;;;;;4988129;28;20465;-65
2022/06/20 09:01:32;;;;;;;29.33;5.20;;;41.20;1.00;;;;;;4987727;28;20578;-66
2022/06/20 09:04:27;;;;;;;25.93;4.70;;;42.50;1.00;;;;;;4983940;28;20467;-66
2022/06/20 09:07:13;;;;;;;30.90;5.50;;;44.70;1.00;;;;;;4981432;28;20454;-66
2022/06/20 09:10:11;;;;;;;25.73;4.70;;;44.70;1.00;;;;;;4973227;28;20989;-65
2022/06/20 09:13:01;;;;;;;29.80;5.27;;;45.60;1.00;;;;;;4976620;28;20469;-65
2022/06/20 09:15:44;;;;;;;27.37;4.37;;;47.30;1.00;;;;;;4972457;28;20464;-66
2022/06/20 09:18:25;;;;;;;25.23;4.73;;;47.60;1.00;;;;;;4972488;28;20456;-66
2022/06/20 09:20:58;;;;;;;25.77;4.93;;;45.60;1.00;;;;;;4972207;28;20744;-65
2022/06/20 09:23:42;;;;;;;27.90;5.27;;;44.10;1.00;;;;;;4972867;28;20450;-66
2022/06/20 09:26:14;;;;;;;26.43;5.13;;;43.00;1.00;;;;;;4972755;28;20449;-66
2022/06/20 09:29:13;;;;;;;26.77;4.73;;;42.30;1.00;;;;;;4972213;28;20489;-66
2022/06/20 09:32:09;;;;;;;26.60;4.20;;;42.10;1.00;;;;;;4971128;28;20488;-65
2022/06/20 09:35:06;;;;;;;32.13;5.57;;;41.60;1.00;;;;;;4971757;28;20457;-65
2022/06/20 09:38:07;;;;;;;27.97;5.60;;;41.00;1.00;;;;;;4970847;28;20453;-65
2022/06/20 09:40:42;;;;;;;30.83;5.50;;;40.40;1.00;;;;;;4971643;28;20455;-65
2022/06/20 09:43:23;;;;;;;30.33;5.07;;;39.90;1.00;;;;;;4970026;28;20790;-65
2022/06/20 09:45:57;;;;;;;30.80;5.63;;;39.50;1.00;;;;;;4987492;28;20459;-65
2022/06/20 09:48:34;;;;;;;26.27;5.30;;;39.00;1.00;;;;;;4991066;28;20831;-65
2022/06/20 09:51:09;;;;;;;27.97;5.70;;;38.80;1.00;;;;;;4991510;28;20539;-65
2022/06/20 09:53:46;;;;;;;26.30;5.57;;;38.80;1.00;;;;;;4991044;28;20516;-65
2022/06/20 09:56:17;;;;;;;29.50;5.77;;;38.70;1.00;;;;;;4989961;28;20457;-65
2022/06/20 09:58:56;;;;;;;26.93;5.40;;;38.40;1.00;;;;;;4991105;28;20480;-65
2022/06/20 10:01:29;;;;;;;30.20;6.00;;;38.20;1.00;;;;;;4990334;28;21001;-65
2022/06/20 10:04:01;;;;;;;29.20;5.93;;;37.90;1.00;;;;;;4990400;28;20452;-65
2022/06/20 10:06:43;;;;;;;31.57;6.60;;;37.60;1.00;;;;;;4989169;28;20953;-65
2022/06/20 10:09:15;;;;;;;30.60;5.70;;;37.50;1.00;;;;;;4991418;28;20989;-65
2022/06/20 10:11:49;;;;;;;28.90;6.40;;;37.40;1.00;;;;;;4990747;28;20471;-65
2022/06/20 10:14:26;;;;;;;29.60;6.40;;;37.20;1.00;;;;;;4990065;28;20442;-65
2022/06/20 10:16:59;;;;;;;27.53;6.30;;;37.00;1.00;;;;;;4989269;28;20452;-65
2022/06/20 10:19:33;;;;;;;28.17;6.10;;;36.70;1.00;;;;;;4990724;28;20472;-65
2022/06/20 10:22:09;;;;;;;28.53;6.20;;;36.50;1.00;;;;;;4989930;28;20937;-65
2022/06/20 10:25:20;;;;;;;30.03;6.73;;;36.30;1.00;;;;;;4989998;28;20893;-65
2022/06/20 10:27:53;;;;;;;29.27;6.70;;;36.00;1.00;;;;;;4909642;29;20736;-66
2022/06/20 10:30:28;;;;;;;28.87;6.20;;;36.00;1.00;;;;;;4910076;29;20495;-65
2022/06/20 10:33:07;;;;;;;29.57;6.90;;;36.00;1.00;;;;;;4952386;28;20492;-65
2022/06/20 10:35:45;;;;;;;31.13;6.57;;;35.90;1.00;;;;;;4989040;28;20471;-65
2022/06/20 10:38:23;;;;;;;32.67;6.97;;;35.80;1.00;;;;;;4987690;28;20552;-65
2022/06/20 10:40:59;;;;;;;29.07;7.10;;;35.60;1.00;;;;;;4985484;28;20837;-65
2022/06/20 10:43:41;;;;;;;28.93;6.57;;;35.50;1.00;;;;;;4978332;28;20448;-65
2022/06/20 10:46:11;;;;;;;31.37;7.83;;;35.50;1.00;;;;;;4975208;28;20458;-65
2022/06/20 10:48:51;;;;;;;27.13;7.10;;;35.40;1.00;;;;;;4990454;28;20993;-66
2022/06/20 10:51:27;;;;;;;28.40;7.60;;;35.10;1.00;;;;;;4990177;28;20452;-65
2022/06/20 10:54:08;;;;;;;28.40;7.20;;;34.80;1.00;;;;;;4990504;28;20460;-65
2022/06/20 10:56:42;;;;;;;29.10;8.00;;;34.40;1.00;;;;;;4987476;28;20453;-65
2022/06/20 10:59:23;;;;;;;28.77;7.70;;;34.20;1.00;;;;;;4987082;28;21022;-65
2022/06/20 11:01:52;;;;;;;36.20;8.03;;;34.00;1.00;;;;;;4990055;28;20473;-65
2022/06/20 11:04:40;;;;;;;30.17;7.43;;;33.90;1.90;;;;;;4990630;28;20461;-65
2022/06/20 11:07:22;;;;;;;33.37;7.60;;;33.70;2.30;;;;;;4987838;28;20465;-65
2022/06/20 11:10:02;;;;;;;27.07;6.93;;;33.70;2.50;;;;;;4989345;28;20495;-65
2022/06/20 11:12:41;;;;;;;29.20;6.90;;;33.70;1.90;;;;;;4989895;28;20536;-65
2022/06/20 11:15:19;;;;;;;27.87;6.53;;;33.70;2.70;;;;;;4987733;28;20461;-65
2022/06/20 11:17:52;;;;;;;28.90;6.27;;;33.60;3.40;;;;;;4987971;28;20818;-65
2022/06/20 11:20:24;;;;;;;29.20;6.07;;;33.60;1.00;;;;;;4990060;28;21057;-65
2022/06/20 11:22:55;;;;;;;29.37;5.93;;;33.50;2.40;;;;;;4989057;28;20831;-65
2022/06/20 11:25:35;;;;;;;29.03;5.10;;;33.40;1.40;;;;;;4988993;28;20817;-65
2022/06/20 11:28:32;;;;;;;29.70;5.60;;;33.40;1.00;;;;;;4988560;28;20471;-66
2022/06/20 11:31:06;;;;;;;31.17;5.73;;;33.20;1.60;;;;;;4988634;28;20480;-65
2022/06/20 11:34:01;;;;;;;27.80;5.77;;;33.10;1.40;;;;;;4989040;28;20528;-65
2022/06/20 11:36:36;;;;;;;27.30;5.90;;;33.00;2.80;;;;;;4989618;28;20460;-65
2022/06/20 11:39:14;;;;;;;28.17;5.53;;;32.90;1.00;;;;;;4987980;28;20488;-65
2022/06/20 11:41:50;;;;;;;31.40;5.80;;;32.70;1.00;;;;;;4987148;28;20463;-66
2022/06/20 11:44:39;;;;;;;27.87;5.80;;;32.60;1.30;;;;;;4988944;28;21127;-65
2022/06/20 11:47:27;;;;;;;34.67;5.50;;;32.50;1.70;;;;;;4986278;28;20465;-65
2022/06/20 11:50:17;;;;;;;27.60;5.63;;;32.40;2.30;;;;;;4987974;28;20708;-65
2022/06/20 11:52:54;;;;;;;28.90;5.00;;;32.50;1.50;;;;;;4972359;28;20492;-65
2022/06/20 11:55:28;;;;;;;29.13;6.03;;;32.50;1.00;;;;;;4988076;28;20448;-66
2022/06/20 11:58:02;;;;;;;29.40;5.40;;;32.60;1.00;;;;;;4988420;28;20456;-65
2022/06/20 12:00:35;;;;;;;29.60;5.70;;;32.60;1.00;;;;;;4987122;28;20464;-65
2022/06/20 12:03:12;;;;;;;30.17;6.20;;;32.70;1.00;;;;;;4988385;28;20457;-66
2022/06/20 12:05:50;;;;;;;26.60;6.17;;;32.70;1.00;;;;;;4988377;28;20472;-66
2022/06/20 12:08:27;;;;;;;29.43;6.43;;;32.70;1.30;;;;;;4988394;28;20447;-65
2022/06/20 12:10:56;;;;;;;26.80;6.00;;;32.70;2.00;;;;;;4986836;28;20488;-65
2022/06/20 12:13:39;;;;;;;27.30;5.80;;;32.60;2.30;;;;;;4988024;28;20465;-65
2022/06/20 12:16:17;;;;;;;29.43;6.43;;;32.50;3.20;;;;;;4986367;28;20460;-65
2022/06/20 12:24:27;;;;;;;30.20;6.47;;;32.50;3.20;;;;;;4988056;28;20971;-66
2022/06/20 12:26:55;;;;;;;28.00;5.67;;;32.50;2.60;;;;;;4983549;28;20465;-66
2022/06/20 12:29:27;;;;;;;27.83;5.60;;;32.50;2.80;;;;;;4986616;28;20977;-65
2022/06/20 12:31:56;;;;;;;28.07;6.07;;;32.50;2.30;;;;;;4985115;28;20517;-65
2022/06/20 12:34:37;;;;;;;27.90;5.67;;;32.50;2.40;;;;;;4988384;28;20465;-65
2022/06/20 12:37:11;;;;;;;28.37;5.97;;;32.60;2.60;;;;;;4969056;28;20566;-65
2022/06/20 12:39:43;;;;;;;29.77;6.67;;;32.60;1.80;;;;;;4968749;28;20488;-66
2022/06/20 12:42:17;;;;;;;26.23;5.13;;;32.60;2.20;;;;;;4980306;28;20469;-65
2022/06/20 12:44:56;;;;;;;29.40;5.90;;;32.70;3.10;;;;;;4984875;28;21101;-66
2022/06/20 12:47:50;;;;;;;29.20;6.53;;;32.60;2.50;;;;;;4978154;28;20477;-65
2022/06/20 12:50:24;;;;;;;28.10;6.00;;;32.50;2.30;;;;;;4971467;28;20493;-66
2022/06/20 12:53:03;;;;;;;29.20;7.00;;;32.50;2.90;;;;;;4978725;28;21132;-66
2022/06/20 12:55:49;;;;;;;31.03;6.80;;;32.50;3.10;;;;;;4983070;28;20964;-65
2022/06/20 12:58:32;;;;;;;27.20;6.20;;;32.40;3.20;;;;;;4982791;28;20807;-66
2022/06/20 13:01:06;;;;;;;29.50;6.77;;;32.40;3.40;;;;;;4987460;28;20487;-65
2022/06/20 13:04:10;;;;;;;30.80;8.00;;;32.50;4.10;;;;;;4977066;28;20472;-66
2022/06/20 13:07:14;;;;;;;30.73;7.83;;;32.50;4.30;;;;;;4986867;28;21037;-66
2022/06/20 13:10:23;;;;;;;30.17;7.70;;;32.40;4.60;;;;;;4987159;28;21169;-66
2022/06/20 13:13:14;;;;;;;30.20;8.23;;;32.30;5.40;;;;;;4977394;28;20460;-65
2022/06/20 13:15:46;;;;;;;27.40;7.30;;;32.10;6.00;;;;;;4980730;28;20488;-66
2022/06/20 13:18:49;;;;;;;28.97;8.07;;;32.00;6.60;;;;;;4976461;28;20449;-65
2022/06/20 13:21:22;;;;;;;32.67;7.27;;;32.00;6.50;;;;;;4976182;28;20453;-66
2022/06/20 13:24:00;;;;;;;27.67;7.00;;;32.00;6.50;;;;;;4972776;28;20459;-65
2022/06/20 13:26:35;;;;;;;31.03;7.50;;;32.00;7.10;;;;;;4974932;28;20484;-66
2022/06/20 13:29:30;;;;;;;31.30;7.10;;;32.00;7.30;;;;;;4967767;28;20480;-66
2022/06/20 13:32:03;;;;;;;30.03;6.60;;;31.90;6.50;;;;;;4967499;28;21368;-65